Welcome to Northern Hawkes Bay. New Zealand.
PWS Header
      nz Flag



Hit Counter


W3C Valid W3C Valid logo


    Wairoa

Select any of the Stations below to visit their websites.










Historic Data from Weather Underground
Select the location of interest below. Wairoa is the default. Please have patience, this Data is slow to load in.
Northern Hawkes Bay Historical Data
Daily Summary for February 12, 2017 Units:  English    Metric   Both
« Previous Day
Next Day »
Daily Weekly Monthly Yearly Custom
  High: Low: Average:
Temperature: 83.3 °F 48.9 °F 68 °F
Dew Point: 60.4 °F 48.7 °F 52.9 °F
Humidity: 99% 33% 64%
Wind Speed: 19.7mph 0mph 6mph
Wind Gust: 26.6mph - -
Wind- - NW
Pressure: 29.7 in 29.4 in -
Precipitation: 0 in    
Historical Graphs
 
 
Tabular Data for February 12, 2017
Time Temperature Dew Point Pressure Wind Wind Speed Wind Gust Humidity Rainfall Rate (Hourly) solar
00:00 52.7 °F 50.4 °F 29.7 in NNW 0.7 mph 3.1 mph 92% 0 in 0 W/m2
00:05 52.3 °F 50.2 °F 29.7 in NNW 2.2 mph 3.1 mph 92% 0 in 0 W/m2
00:10 52.7 °F 50.7 °F 29.7 in NNW 3.1 mph 5.4 mph 93% 0 in 0 W/m2
00:16 52.9 °F 50.9 °F 29.7 in NNW 3.1 mph 5.4 mph 93% 0 in 0 W/m2
00:21 52.9 °F 50.9 °F 29.7 in NW 1.6 mph 5.4 mph 93% 0 in 0 W/m2
00:26 52.9 °F 50.9 °F 29.7 in NNW 2.2 mph 5.4 mph 93% 0 in 0 W/m2
00:31 52.9 °F 50.5 °F 29.6 in NNW 0.7 mph 3.8 mph 92% 0 in 0 W/m2
00:36 52.9 °F 50.5 °F 29.6 in NNW 2.2 mph 3.8 mph 92% 0 in 0 W/m2
00:41 52.9 °F 50.9 °F 29.6 in NNW 3.8 mph 6 mph 93% 0 in 0 W/m2
00:46 52.9 °F 50.9 °F 29.6 in NNW 2.2 mph 6 mph 93% 0 in 0 W/m2
00:51 52.7 °F 50.4 °F 29.6 in NNW 2.2 mph 6 mph 92% 0 in 0 W/m2
00:56 52.5 °F 50.4 °F 29.6 in NNW 0.7 mph 3.8 mph 92% 0 in 0 W/m2
01:01 52.3 °F 50.2 °F 29.6 in NNW 2.2 mph 3.8 mph 92% 0 in 0 W/m2
01:06 52.2 °F 50.2 °F 29.6 in NNW 1.6 mph 3.8 mph 93% 0 in 0 W/m2
01:11 52 °F 50 °F 29.6 in NNW 0.7 mph 3.8 mph 93% 0 in 0 W/m2
01:16 52 °F 50 °F 29.6 in NNW 3.1 mph 3.8 mph 93% 0 in 0 W/m2
01:21 51.8 °F 50.2 °F 29.6 in NNW 0.7 mph 3.8 mph 94% 0 in 0 W/m2
01:26 51.6 °F 50.2 °F 29.6 in NW 1.6 mph 3.8 mph 95% 0 in 0 W/m2
01:31 51.4 °F 50.2 °F 29.6 in NW 1.6 mph 3.8 mph 95% 0 in 0 W/m2
01:36 51.3 °F 49.8 °F 29.6 in Calm   3.8 mph 95% 0 in 0 W/m2
01:41 51.3 °F 49.8 °F 29.6 in NNW 0.7 mph 3.1 mph 95% 0 in 0 W/m2
01:46 51.3 °F 49.8 °F 29.6 in NW 1.6 mph 2.2 mph 95% 0 in 0 W/m2
01:51 51.3 °F 50.2 °F 29.6 in NNW 0.7 mph 3.1 mph 96% 0 in 0 W/m2
01:56 51.3 °F 50.2 °F 29.6 in NNW 1.6 mph 4.5 mph 96% 0 in 0 W/m2
02:01 51.4 °F 50.4 °F 29.6 in NNW 3.8 mph 6 mph 96% 0 in 0 W/m2
02:06 51.6 °F 50.7 °F 29.6 in NNW 3.1 mph 6 mph 97% 0 in 0 W/m2
02:11 51.6 °F 50.7 °F 29.6 in NNW 3.1 mph 6 mph 97% 0 in 0 W/m2
02:17 51.4 °F 50.5 °F 29.6 in NNW 2.2 mph 5.4 mph 97% 0 in 0 W/m2
02:22 51.4 °F 50.4 °F 29.6 in NNW 3.8 mph 6 mph 96% 0 in 0 W/m2
02:27 51.4 °F 50.4 °F 29.6 in NW 2.2 mph 6.9 mph 96% 0 in 0 W/m2
02:33 51.3 °F 50.2 °F 29.6 in NNW 1.6 mph 6.9 mph 96% 0 in 0 W/m2
02:38 51.1 °F 50 °F 29.6 in NNW 1.6 mph 5.4 mph 96% 0 in 0 W/m2
02:44 50.9 °F 49.8 °F 29.6 in NNW 0.7 mph 3.8 mph 96% 0 in 0 W/m2
02:49 50.7 °F 49.6 °F 29.6 in Calm   3.1 mph 96% 0 in 0 W/m2
03:06 50.4 °F 49.5 °F 29.6 in Calm   2.2 mph 97% 0 in 0 W/m2
03:11 50.5 °F 49.6 °F 29.6 in North 2.2 mph 3.1 mph 97% 0 in 0 W/m2
03:16 50.5 °F 49.6 °F 29.6 in NNW 1.6 mph 3.8 mph 97% 0 in 0 W/m2
03:21 50.5 °F 49.6 °F 29.6 in NNW 2.2 mph 3.8 mph 97% 0 in 0 W/m2
03:26 50.4 °F 49.8 °F 29.6 in NNW 1.6 mph 3.8 mph 98% 0 in 0 W/m2
03:31 50.2 °F 49.6 °F 29.6 in NNW 1.6 mph 3.8 mph 98% 0 in 0 W/m2
03:36 50.2 °F 49.6 °F 29.6 in NNW 1.6 mph 3.8 mph 98% 0 in 0 W/m2
03:41 50.2 °F 49.6 °F 29.6 in NNW 2.2 mph 3.8 mph 98% 0 in 0 W/m2
03:46 50.2 °F 49.6 °F 29.6 in North 2.2 mph 3.8 mph 98% 0 in 0 W/m2
03:51 50.4 °F 50.2 °F 29.6 in North 2.2 mph 5.4 mph 99% 0 in 0 W/m2
03:56 50.5 °F 50.4 °F 29.6 in North 3.1 mph 5.4 mph 99% 0 in 0 W/m2
04:15 50.4 °F 50.2 °F 29.6 in NNW 3.8 mph 5.4 mph 99% 0 in 0 W/m2
04:20 50.5 °F 50.4 °F 29.6 in NNW 2.2 mph 6.9 mph 99% 0 in 0 W/m2
04:25 50.5 °F 50.4 °F 29.6 in NNW 1.6 mph 6.9 mph 99% 0 in 0 W/m2
04:30 50.5 °F 50.4 °F 29.6 in North 1.6 mph 3.8 mph 99% 0 in 0 W/m2
04:49 50.7 °F 50.5 °F 29.6 in NNW 2.2 mph 3.8 mph 99% 0 in 0 W/m2
04:55 50.7 °F 50.5 °F 29.6 in NNW 1.6 mph 3.8 mph 99% 0 in 0 W/m2
05:00 50.5 °F 50.4 °F 29.6 in NNW 0.7 mph 3.8 mph 99% 0 in 0 W/m2
05:05 50.4 °F 50.2 °F 29.6 in NNW 2.2 mph 3.8 mph 99% 0 in 0 W/m2
05:10 50.4 °F 50.2 °F 29.6 in NNW 1.6 mph 3.8 mph 99% 0 in 0 W/m2
05:15 50.2 °F 49.8 °F 29.6 in NNW 1.6 mph 4.5 mph 99% 0 in 0 W/m2
05:20 50 °F 49.6 °F 29.6 in Calm   4.5 mph 99% 0 in 0 W/m2
05:25 50 °F 49.5 °F 29.6 in Calm   3.1 mph 98% 0 in 0 W/m2
05:30 49.5 °F 49.3 °F 29.6 in Calm   2.2 mph 99% 0 in 0 W/m2
05:35 49.3 °F 48.9 °F 29.6 in Calm   1.6 mph 99% 0 in 0 W/m2
05:40 49.1 °F 48.7 °F 29.6 in NW 0.7 mph 2.2 mph 99% 0 in 0 W/m2
05:46 49.1 °F 48.7 °F 29.6 in NNW 0.7 mph 3.1 mph 99% 0 in 0 W/m2
05:51 48.9 °F 48.7 °F 29.6 in North 1.6 mph 3.1 mph 99% 0 in 0 W/m2
05:56 48.9 °F 48.7 °F 29.6 in North 0.7 mph 2.2 mph 99% 0 in 0 W/m2
06:01 48.9 °F 48.7 °F 29.6 in North 1.6 mph 2.2 mph 99% 0 in 0 W/m2
06:06 48.9 °F 48.7 °F 29.5 in NNW 1.6 mph 2.2 mph 99% 0 in 0 W/m2
06:11 49.1 °F 48.7 °F 29.6 in North 1.6 mph 2.2 mph 99% 0 in 0 W/m2
06:17 49.3 °F 48.9 °F 29.5 in NNW 1.6 mph 3.1 mph 99% 0 in 0 W/m2
06:22 49.3 °F 48.9 °F 29.5 in Calm   3.1 mph 99% 0 in 0 W/m2
06:27 49.1 °F 48.7 °F 29.6 in Calm   2.2 mph 99% 0 in 1 W/m2
06:33 49.3 °F 48.9 °F 29.5 in NW 1.6 mph 2.2 mph 99% 0 in 4 W/m2
06:38 49.3 °F 48.9 °F 29.6 in NW 1.6 mph 3.8 mph 99% 0 in 9 W/m2
06:43 49.5 °F 49.3 °F 29.6 in North 2.2 mph 3.8 mph 99% 0 in 15 W/m2
06:48 49.6 °F 49.5 °F 29.6 in North 1.6 mph 3.8 mph 99% 0 in 22 W/m2
06:53 49.8 °F 49.6 °F 29.6 in North 1.6 mph 3.1 mph 99% 0 in 27 W/m2
06:59 50 °F 49.6 °F 29.5 in NNW 0.7 mph 3.1 mph 99% 0 in 45 W/m2
07:05 51.1 °F 50.7 °F 29.5 in NNW 2.2 mph 3.8 mph 99% 0 in 68 W/m2
07:10 51.8 °F 51.3 °F 29.5 in NNW 3.1 mph 4.5 mph 98% 0 in 90 W/m2
07:15 52.3 °F 51.8 °F 29.5 in NNW 3.1 mph 4.5 mph 98% 0 in 101 W/m2
07:20 53.1 °F 52.5 °F 29.5 in NNW 2.2 mph 4.5 mph 98% 0 in 113 W/m2
07:25 53.8 °F 52.7 °F 29.5 in NNW 1.6 mph 4.5 mph 96% 0 in 96 W/m2
07:30 54.3 °F 52.5 °F 29.5 in NNW 2.2 mph 4.5 mph 94% 0 in 128 W/m2
07:35 55.2 °F 53.2 °F 29.5 in NNW 3.1 mph 4.5 mph 93% 0 in 172 W/m2
07:40 56.8 °F 54 °F 29.5 in North 1.6 mph 4.5 mph 90% 0 in 176 W/m2
07:45 58.3 °F 54.3 °F 29.5 in North 1.6 mph 4.5 mph 87% 0 in 100 W/m2
07:50 58.3 °F 53.8 °F 29.5 in NNW 2.2 mph 3.8 mph 85% 0 in 91 W/m2
07:55 58.1 °F 53.6 °F 29.5 in NNW 3.1 mph 5.4 mph 85% 0 in 79 W/m2
08:00 58.1 °F 54 °F 29.5 in NNW 4.5 mph 6 mph 86% 0 in 82 W/m2
08:05 58.6 °F 54.5 °F 29.5 in NW 4.5 mph 9.2 mph 86% 0 in 94 W/m2
08:10 59.2 °F 54.3 °F 29.5 in NNW 3.1 mph 9.2 mph 84% 0 in 102 W/m2
08:15 59.7 °F 54.7 °F 29.5 in North 3.8 mph 8.3 mph 83% 0 in 120 W/m2
08:20 60.3 °F 54.1 °F 29.5 in NNW 4.5 mph 9.2 mph 80% 0 in 128 W/m2
08:26 61.2 °F 54 °F 29.5 in NNW 4.5 mph 9.2 mph 77% 0 in 156 W/m2
08:31 61.7 °F 53.8 °F 29.5 in North 4.5 mph 9.8 mph 75% 0 in 153 W/m2
08:36 62.6 °F 53.4 °F 29.5 in North 3.8 mph 10.7 mph 72% 0 in 161 W/m2
08:41 63.1 °F 53.6 °F 29.5 in North 8.3 mph 13.6 mph 71% 0 in 177 W/m2
08:46 64 °F 53.8 °F 29.5 in NNE 7.6 mph 13.6 mph 69% 0 in 180 W/m2
08:51 64.2 °F 53.4 °F 29.5 in NNE 5.4 mph 12.1 mph 68% 0 in 188 W/m2
08:56 64.6 °F 53.8 °F 29.5 in North 5.4 mph 12.1 mph 68% 0 in 186 W/m2
09:01 64.8 °F 54 °F 29.5 in North 3.8 mph 10.7 mph 68% 0 in 174 W/m2
09:06 64.9 °F 54.1 °F 29.5 in North 3.8 mph 10.7 mph 68% 0 in 186 W/m2
09:11 65.5 °F 54.3 °F 29.5 in North 6.9 mph 9.8 mph 67% 0 in 232 W/m2
09:16 66.4 °F 54.3 °F 29.5 in North 6.9 mph 12.1 mph 65% 0 in 223 W/m2
09:21 66.9 °F 53.4 °F 29.5 in NNW 6.9 mph 12.1 mph 62% 0 in 228 W/m2
09:26 67.3 °F 52.9 °F 29.5 in NNW 6.9 mph 12.1 mph 60% 0 in 259 W/m2
09:31 68 °F 52.2 °F 29.5 in NNW 8.3 mph 12.1 mph 57% 0 in 323 W/m2
09:36 69.1 °F 52.7 °F 29.5 in NNW 6.9 mph 13 mph 56% 0 in 340 W/m2
09:41 70.5 °F 53.1 °F 29.5 in NNW 4.5 mph 13 mph 54% 0 in 461 W/m2
09:46 70.9 °F 51.3 °F 29.5 in North 5.4 mph 20.6 mph 50% 0 in 232 W/m2
09:51 70.5 °F 51.4 °F 29.5 in North 10.7 mph 20.6 mph 51% 0 in 426 W/m2
09:56 71.8 °F 50.5 °F 29.5 in North 7.6 mph 14.5 mph 47% 0 in 567 W/m2
10:01 73.2 °F 51.3 °F 29.5 in North 8.3 mph 14.5 mph 46% 0 in 429 W/m2
10:06 73.8 °F 50.5 °F 29.5 in North 9.8 mph 13.6 mph 44% 0 in 337 W/m2
10:11 73.2 °F 50 °F 29.5 in North 9.8 mph 13.6 mph 44% 0 in 630 W/m2
10:16 74.1 °F 51.4 °F 29.5 in NNW 6.9 mph 13.6 mph 45% 0 in 700 W/m2
10:21 73.6 °F 51.1 °F 29.5 in NNW 7.6 mph 13 mph 45% 0 in 312 W/m2
10:26 72.9 °F 49.6 °F 29.5 in North 3.8 mph 11.4 mph 44% 0 in 177 W/m2
10:31 72.1 °F 48.9 °F 29.5 in North 5.4 mph 11.4 mph 44% 0 in 353 W/m2
10:36 73.6 °F 51.1 °F 29.5 in NNW 6.9 mph 15.2 mph 45% 0 in 804 W/m2
10:41 75.6 °F 50.9 °F 29.5 in NNW 9.2 mph 15.2 mph 42% 0 in 393 W/m2
10:46 74.5 °F 49.8 °F 29.5 in North 9.8 mph 13.6 mph 42% 0 in 437 W/m2
10:51 74.1 °F 50.2 °F 29.5 in North 6 mph 13.6 mph 43% 0 in 513 W/m2
10:56 75.6 °F 50.9 °F 29.5 in NW 6.9 mph 13.6 mph 42% 0 in 863 W/m2
11:01 76.8 °F 50 °F 29.5 in WNW 4.5 mph 13.6 mph 39% 0 in 469 W/m2
11:06 75.9 °F 49.8 °F 29.5 in NW 6 mph 13.6 mph 40% 0 in 410 W/m2
11:11 75.4 °F 50.2 °F 29.5 in NNW 3.8 mph 11.4 mph 41% 0 in 577 W/m2
11:16 74.5 °F 50.5 °F 29.5 in NW 6.9 mph 13 mph 43% 0 in 192 W/m2
11:21 74.1 °F 50.7 °F 29.5 in NW 5.4 mph 13 mph 44% 0 in 396 W/m2
11:26 75.2 °F 51.3 °F 29.5 in NNW 6.9 mph 12.1 mph 43% 0 in 752 W/m2
11:31 76.1 °F 50.2 °F 29.5 in North 4.5 mph 12.1 mph 40% 0 in 358 W/m2
11:36 76.5 °F 50.4 °F 29.5 in North 9.2 mph 12.1 mph 40% 0 in 878 W/m2
11:41 76.8 °F 50 °F 29.5 in NNW 5.4 mph 12.1 mph 39% 0 in 956 W/m2
11:46 77.5 °F 50.7 °F 29.5 in NNW 6 mph 12.1 mph 39% 0 in 1019 W/m2
11:51 78.1 °F 51.8 °F 29.5 in NNW 3.8 mph 9.8 mph 40% 0 in 1073 W/m2
11:56 78.8 °F 50.4 °F 29.5 in NNW 5.4 mph 9.8 mph 37% 0 in 472 W/m2
12:01 77.7 °F 49.5 °F 29.5 in North 7.6 mph 13.6 mph 37% 0 in 585 W/m2
12:06 77.7 °F 50.2 °F 29.5 in NNW 6.9 mph 13.6 mph 38% 0 in 1013 W/m2
12:11 78.3 °F 50.5 °F 29.5 in NW 4.5 mph 13 mph 38% 0 in 988 W/m2
12:16 79 °F 49.8 °F 29.5 in NNW 9.2 mph 14.5 mph 36% 0 in 1134 W/m2
12:21 79.2 °F 49.3 °F 29.5 in NNW 9.2 mph 16.8 mph 35% 0 in 681 W/m2
12:26 79 °F 50.5 °F 29.5 in NW 5.4 mph 16.8 mph 37% 0 in 688 W/m2
12:31 79 °F 49.8 °F 29.5 in NW 3.8 mph 13 mph 36% 0 in 460 W/m2
12:36 78.6 °F 50.2 °F 29.5 in NW 8.3 mph 13.6 mph 37% 0 in 412 W/m2
12:41 78.1 °F 49.6 °F 29.5 in NW 8.3 mph 13.6 mph 37% 0 in 348 W/m2
12:46 77.5 °F 49.3 °F 29.5 in NW 3.8 mph 12.1 mph 37% 0 in 320 W/m2
12:51 77.5 °F 50.7 °F 29.5 in NW 4.5 mph 10.7 mph 39% 0 in 1114 W/m2
12:56 79.7 °F 51.3 °F 29.5 in NW 9.8 mph 11.4 mph 37% 0 in 1031 W/m2
13:01 80.6 °F 48.9 °F 29.5 in NW 6.9 mph 12.1 mph 33% 0 in 1038 W/m2
13:06 81.1 °F 49.3 °F 29.5 in WNW 4.5 mph 12.1 mph 33% 0 in 1058 W/m2
13:11 82 °F 50.2 °F 29.4 in WNW 3.1 mph 9.2 mph 33% 0 in 1033 W/m2
13:16 81.7 °F 49.8 °F 29.4 in WNW 7.6 mph 14.5 mph 33% 0 in 1016 W/m2
13:21 81.5 °F 49.6 °F 29.4 in WNW 7.6 mph 14.5 mph 33% 0 in 1006 W/m2
13:26 81.1 °F 49.3 °F 29.4 in NW 8.3 mph 18.3 mph 33% 0 in 993 W/m2
13:31 81.3 °F 49.5 °F 29.4 in NW 6 mph 18.3 mph 33% 0 in 983 W/m2
13:47 81 °F 50 °F 29.4 in NNW 13 mph 18.3 mph 34% 0 in 953 W/m2
13:52 81.3 °F 51.1 °F 29.4 in NW 7.6 mph 16.8 mph 35% 0 in 951 W/m2
13:57 81.5 °F 49.6 °F 29.4 in NW 9.2 mph 16.8 mph 33% 0 in 946 W/m2
14:02 81 °F 50 °F 29.4 in NW 13.6 mph 22.1 mph 34% 0 in 930 W/m2
14:07 81.1 °F 50.9 °F 29.4 in NW 11.4 mph 22.1 mph 35% 0 in 916 W/m2
14:12 81.3 °F 51.1 °F 29.4 in NW 8.3 mph 18.3 mph 35% 0 in 914 W/m2
14:17 81.1 °F 50.9 °F 29.4 in NW 8.3 mph 19 mph 35% 0 in 906 W/m2
14:22 81.3 °F 52.5 °F 29.4 in NW 8.3 mph 19 mph 37% 0 in 897 W/m2
14:27 81.3 °F 53.2 °F 29.4 in WNW 8.3 mph 19 mph 38% 0 in 883 W/m2
14:32 81.1 °F 53.2 °F 29.4 in NW 13.6 mph 22.1 mph 38% 0 in 876 W/m2
14:37 80.4 °F 52.5 °F 29.4 in NW 19 mph 25.1 mph 38% 0 in 863 W/m2
14:42 80.2 °F 52.3 °F 29.4 in NNW 13 mph 25.1 mph 38% 0 in 721 W/m2
14:47 80.4 °F 52.5 °F 29.4 in NNW 10.7 mph 25.1 mph 38% 0 in 378 W/m2
14:52 80.1 °F 52.9 °F 29.4 in NW 8.3 mph 20.6 mph 39% 0 in 713 W/m2
14:57 80.4 °F 52.5 °F 29.4 in NW 10.7 mph 20.6 mph 38% 0 in 802 W/m2
15:02 80.6 °F 52 °F 29.4 in NW 6.9 mph 19 mph 37% 0 in 604 W/m2
15:07 81.1 °F 52.3 °F 29.4 in NW 10.7 mph 20.6 mph 37% 0 in 709 W/m2
15:12 81.1 °F 51.6 °F 29.4 in NNW 14.5 mph 21.3 mph 36% 0 in 705 W/m2
15:17 81 °F 53.1 °F 29.4 in NNW 9.8 mph 21.3 mph 38% 0 in 734 W/m2
15:22 81.3 °F 54 °F 29.4 in NW 13.6 mph 22.8 mph 39% 0 in 518 W/m2
15:27 79.2 °F 52.9 °F 29.4 in NW 18.3 mph 26.6 mph 40% 0 in 334 W/m2
15:32 78.3 °F 54 °F 29.4 in NNW 13 mph 26.6 mph 43% 0 in 287 W/m2
15:37 78.1 °F 52.5 °F 29.4 in NNW 8.3 mph 21.3 mph 41% 0 in 257 W/m2
15:42 77.9 °F 53.6 °F 29.4 in NW 8.3 mph 19.7 mph 43% 0 in 298 W/m2
15:47 78.1 °F 53.8 °F 29.4 in NW 7.6 mph 18.3 mph 43% 0 in 203 W/m2
15:52 77.5 °F 53.2 °F 29.4 in NW 8.3 mph 15.9 mph 43% 0 in 192 W/m2
15:57 78.1 °F 54.3 °F 29.4 in NW 9.2 mph 15.9 mph 44% 0 in 254 W/m2
16:02 79.5 °F 54.5 °F 29.4 in NW 19.7 mph 23.5 mph 42% 0 in 560 W/m2
16:07 80.4 °F 54 °F 29.4 in NW 10.7 mph 23.5 mph 40% 0 in 389 W/m2
16:12 81 °F 53.1 °F 29.4 in NNW 11.4 mph 23.5 mph 38% 0 in 495 W/m2
16:17 81 °F 53.1 °F 29.4 in NW 13 mph 21.3 mph 38% 0 in 464 W/m2
16:22 81.3 °F 55.4 °F 29.4 in NW 9.2 mph 21.3 mph 41% 0 in 479 W/m2
16:28 80.8 °F 52.9 °F 29.4 in NW 8.3 mph 22.1 mph 38% 0 in 405 W/m2
16:33 81.5 °F 53.4 °F 29.4 in NNW 10.7 mph 22.1 mph 38% 0 in 491 W/m2
16:38 81.9 °F 54.5 °F 29.4 in NNW 6.9 mph 17.4 mph 39% 0 in 404 W/m2
16:43 81.9 °F 53.1 °F 29.4 in NNW 8.3 mph 18.3 mph 37% 0 in 499 W/m2
16:48 83.3 °F 55 °F 29.4 in North 7.6 mph 18.3 mph 38% 0 in 539 W/m2
16:53 82.9 °F 53.2 °F 29.4 in NW 10.7 mph 19 mph 36% 0 in 522 W/m2
16:58 82.2 °F 51.1 °F 29.4 in NW 14.5 mph 25.9 mph 34% 0 in 508 W/m2
17:03 81.5 °F 51.3 °F 29.4 in NNW 13 mph 25.9 mph 35% 0 in 486 W/m2
17:08 81.7 °F 52.2 °F 29.4 in NNW 13.6 mph 21.3 mph 36% 0 in 472 W/m2
17:13 82.4 °F 54.3 °F 29.4 in NW 7.6 mph 20.6 mph 38% 0 in 464 W/m2
17:19 82.8 °F 54 °F 29.4 in NW 10.7 mph 25.9 mph 37% 0 in 435 W/m2
17:24 82 °F 53.2 °F 29.4 in NW 9.8 mph 25.9 mph 37% 0 in 430 W/m2
17:29 81.9 °F 52.3 °F 29.4 in NNW 9.8 mph 25.1 mph 36% 0 in 377 W/m2
17:34 81.7 °F 52.2 °F 29.4 in NNW 6.9 mph 22.8 mph 36% 0 in 405 W/m2
17:39 81.5 °F 52 °F 29.4 in NNW 13.6 mph 25.1 mph 36% 0 in 379 W/m2
17:56 81.5 °F 54.1 °F 29.4 in NW 12.1 mph 22.1 mph 39% 0 in 333 W/m2
18:01 81.3 °F 54.7 °F 29.4 in NW 16.8 mph 25.9 mph 40% 0 in 310 W/m2
18:06 80.4 °F 55.2 °F 29.4 in NW 15.9 mph 25.9 mph 42% 0 in 305 W/m2
18:11 80.6 °F 54.9 °F 29.4 in NNW 13 mph 25.9 mph 41% 0 in 274 W/m2
18:16 80.4 °F 55.9 °F 29.4 in NW 13 mph 22.1 mph 43% 0 in 266 W/m2
18:21 80.4 °F 55.9 °F 29.4 in NW 8.3 mph 22.1 mph 43% 0 in 255 W/m2
18:26 80.8 °F 55.6 °F 29.4 in NW 9.8 mph 22.1 mph 42% 0 in 242 W/m2
18:31 80.4 °F 55.9 °F 29.4 in NW 10.7 mph 17.4 mph 43% 0 in 224 W/m2
18:36 80.1 °F 55.6 °F 29.4 in NW 15.2 mph 22.1 mph 43% 0 in 198 W/m2
18:41 79.2 °F 55.4 °F 29.4 in NW 13.6 mph 22.1 mph 44% 0 in 114 W/m2
18:46 78.6 °F 56.1 °F 29.4 in NNW 8.3 mph 22.1 mph 46% 0 in 79 W/m2
18:51 78.4 °F 55.9 °F 29.4 in NNW 9.2 mph 21.3 mph 46% 0 in 57 W/m2
18:56 78.1 °F 55.8 °F 29.4 in NW 11.4 mph 21.3 mph 46% 0 in 124 W/m2
19:01 78.3 °F 55.8 °F 29.4 in NW 13 mph 21.3 mph 46% 0 in 73 W/m2
19:06 77.7 °F 55.9 °F 29.4 in NW 10.7 mph 21.3 mph 47% 0 in 60 W/m2
19:11 77.7 °F 55.9 °F 29.4 in NW 8.3 mph 19 mph 47% 0 in 45 W/m2
19:16 77.5 °F 55.8 °F 29.4 in NNW 6 mph 15.9 mph 47% 0 in 45 W/m2
19:21 77.4 °F 55.6 °F 29.4 in NW 11.4 mph 20.6 mph 47% 0 in 40 W/m2
19:27 77.4 °F 56.1 °F 29.4 in NW 10.7 mph 20.6 mph 48% 0 in 51 W/m2
19:32 77.9 °F 56.1 °F 29.4 in NW 11.4 mph 19 mph 47% 0 in 82 W/m2
19:37 77.4 °F 56.1 °F 29.4 in NW 9.8 mph 18.3 mph 48% 0 in 28 W/m2
19:42 76.6 °F 56.7 °F 29.4 in NW 6 mph 15.2 mph 50% 0 in 24 W/m2
19:47 76.3 °F 56.8 °F 29.4 in NNW 6 mph 17.4 mph 51% 0 in 21 W/m2
19:52 76.1 °F 57.2 °F 29.4 in NNW 7.6 mph 17.4 mph 52% 0 in 17 W/m2
19:57 75.7 °F 57.4 °F 29.4 in NNW 8.3 mph 22.8 mph 53% 0 in 13 W/m2
20:02 75.4 °F 57.6 °F 29.4 in NNW 6.9 mph 22.8 mph 54% 0 in 10 W/m2
20:07 75.4 °F 57.6 °F 29.4 in NNW 6 mph 15.2 mph 54% 0 in 6 W/m2
20:13 75 °F 57.7 °F 29.4 in NNW 4.5 mph 15.2 mph 55% 0 in 3 W/m2
20:18 74.8 °F 58.1 °F 29.4 in NNW 6.9 mph 13.6 mph 56% 0 in 1 W/m2
20:23 74.8 °F 58.1 °F 29.4 in NNW 4.5 mph 13.6 mph 56% 0 in 0 W/m2
20:28 74.5 °F 58.3 °F 29.4 in NNW 6.9 mph 13.6 mph 57% 0 in 0 W/m2
20:33 74.5 °F 57.7 °F 29.4 in NNW 7.6 mph 13 mph 56% 0 in 0 W/m2
20:38 74.5 °F 58.3 °F 29.4 in NW 7.6 mph 13 mph 57% 0 in 0 W/m2
20:43 74.3 °F 58.1 °F 29.4 in NNW 8.3 mph 14.5 mph 57% 0 in 0 W/m2
20:48 74.3 °F 58.1 °F 29.4 in NNW 7.6 mph 14.5 mph 57% 0 in 0 W/m2
20:53 74.3 °F 58.1 °F 29.4 in NNW 9.2 mph 15.9 mph 57% 0 in 0 W/m2
20:59 74.5 °F 58.3 °F 29.4 in NW 7.6 mph 18.3 mph 57% 0 in 0 W/m2
21:04 74.3 °F 58.1 °F 29.4 in NW 12.1 mph 18.3 mph 57% 0 in 0 W/m2
21:09 74.1 °F 57.9 °F 29.4 in NW 6 mph 15.9 mph 57% 0 in 0 W/m2
21:14 74.1 °F 57.9 °F 29.4 in NNW 9.2 mph 15.9 mph 57% 0 in 0 W/m2
21:19 74.1 °F 57.9 °F 29.4 in NNW 8.3 mph 15.2 mph 57% 0 in 0 W/m2
21:24 74.1 °F 58.5 °F 29.4 in NNW 8.3 mph 15.2 mph 58% 0 in 0 W/m2
21:29 74.1 °F 58.5 °F 29.4 in NW 10.7 mph 15.2 mph 58% 0 in 0 W/m2
21:34 74.1 °F 58.5 °F 29.4 in NNW 9.2 mph 16.8 mph 58% 0 in 0 W/m2
21:39 74.1 °F 58.5 °F 29.4 in NNW 10.7 mph 16.8 mph 58% 0 in 0 W/m2
21:44 74.1 °F 58.5 °F 29.4 in NW 8.3 mph 16.8 mph 58% 0 in 0 W/m2
21:49 73.8 °F 58.6 °F 29.4 in NW 7.6 mph 16.8 mph 59% 0 in 0 W/m2
21:54 73.4 °F 58.3 °F 29.4 in NNW 6 mph 13 mph 59% 0 in 0 W/m2
21:59 73.2 °F 59 °F 29.4 in NW 6.9 mph 13 mph 61% 0 in 0 W/m2
22:04 73 °F 58.8 °F 29.4 in NNW 7.6 mph 12.1 mph 61% 0 in 0 W/m2
22:09 73 °F 59.4 °F 29.4 in North 6 mph 12.1 mph 62% 0 in 0 W/m2
22:14 73 °F 59.4 °F 29.4 in North 5.4 mph 10.7 mph 62% 0 in 0 W/m2
22:19 72.9 °F 59.2 °F 29.4 in North 3.8 mph 10.7 mph 62% 0 in 0 W/m2
22:24 72.7 °F 58.8 °F 29.4 in North 3.1 mph 10.7 mph 62% 0 in 0 W/m2
22:29 72.7 °F 58.8 °F 29.4 in NNW 2.2 mph 6.9 mph 62% 0 in 0 W/m2
22:34 72.3 °F 59 °F 29.4 in NNW 3.1 mph 8.3 mph 63% 0 in 0 W/m2
22:39 72.3 °F 59 °F 29.4 in NNW 3.1 mph 8.3 mph 63% 0 in 0 W/m2
22:44 72.1 °F 58.8 °F 29.4 in NNW 2.2 mph 8.3 mph 63% 0 in 0 W/m2
22:49 72 °F 58.6 °F 29.4 in NNW 6 mph 10.7 mph 63% 0 in 0 W/m2
22:55 71.6 °F 58.8 °F 29.4 in NNW 4.5 mph 10.7 mph 64% 0 in 0 W/m2
23:00 71.4 °F 59.2 °F 29.4 in North 4.5 mph 9.8 mph 65% 0 in 0 W/m2
23:06 71.6 °F 59.2 °F 29.4 in North 3.1 mph 9.8 mph 65% 0 in 0 W/m2
23:11 72.1 °F 59.7 °F 29.4 in North 3.8 mph 13 mph 65% 0 in 0 W/m2
23:16 72 °F 59.5 °F 29.4 in North 4.5 mph 13 mph 65% 0 in 0 W/m2
23:22 72.1 °F 59.4 °F 29.4 in North 4.5 mph 7.6 mph 64% 0 in 0 W/m2
23:27 72.1 °F 59.7 °F 29.4 in NNE 2.2 mph 7.6 mph 65% 0 in 0 W/m2
23:32 71.8 °F 59.4 °F 29.4 in North 2.2 mph 6 mph 65% 0 in 0 W/m2
23:37 71.8 °F 59.4 °F 29.4 in North 2.2 mph 6 mph 65% 0 in 0 W/m2
23:42 71.6 °F 59.7 °F 29.4 in NNW 3.1 mph 6 mph 66% 0 in 0 W/m2
23:47 71.2 °F 59.7 °F 29.4 in NW 2.2 mph 4.5 mph 67% 0 in 0 W/m2
23:52 70.7 °F 60.1 °F 29.4 in NNW 3.1 mph 5.4 mph 69% 0 in 0 W/m2
23:57 70.7 °F 60.4 °F 29.4 in NNW 3.1 mph 6 mph 70% 0 in 0 W/m2
Northern Hawkes Bay. New Zealand Historic Data
Compliments of Weather Underground - 2 mb